createdAt,value
2022-07-30T00:02:16.477Z,801.60
2022-07-30T00:04:44.337Z,813.35
2022-07-30T00:07:12.874Z,825.30
2022-07-30T00:09:40.667Z,851.47
2022-07-30T00:12:10.999Z,866.65
2022-07-30T00:14:40.961Z,852.88
2022-07-30T00:17:10.956Z,876.83
2022-07-30T00:19:40.501Z,881.70
2022-07-30T00:22:09.895Z,879.55
2022-07-30T00:24:37.357Z,892.25
2022-07-30T00:27:05.419Z,878.10
2022-07-30T00:29:32.716Z,900.92
2022-07-30T00:32:00.078Z,892.65
2022-07-30T00:34:27.356Z,863.65
2022-07-30T00:36:55.195Z,885.13
2022-07-30T00:39:22.558Z,859.72
2022-07-30T00:41:58.172Z,833.22
2022-07-30T00:44:29.064Z,826.38
2022-07-30T00:46:57.429Z,840.92
2022-07-30T00:49:27.435Z,859.97
2022-07-30T00:51:55.221Z,824.85
2022-07-30T00:54:22.543Z,815.28
2022-07-30T00:56:50.882Z,776.72
2022-07-30T00:59:20.658Z,795.13
2022-07-30T01:01:48.165Z,820.00
2022-07-30T01:04:19.088Z,786.53
2022-07-30T01:06:46.587Z,783.28
2022-07-30T01:09:16.539Z,806.95
2022-07-30T01:11:46.499Z,776.30
2022-07-30T01:14:14.749Z,800.80
2022-07-30T01:16:45.540Z,798.58
2022-07-30T01:19:52.774Z,811.30
2022-07-30T01:22:26.519Z,794.63
2022-07-30T01:25:04.039Z,802.78
2022-07-30T01:27:40.430Z,849.80
2022-07-30T01:30:10.461Z,805.15
2022-07-30T01:32:43.234Z,807.78
2022-07-30T01:35:14.608Z,759.33
2022-07-30T01:37:44.114Z,808.30
2022-07-30T01:40:14.687Z,795.97
2022-07-30T01:42:44.050Z,854.20
2022-07-30T01:45:15.485Z,800.10
2022-07-30T01:47:44.756Z,824.80
2022-07-30T01:50:14.723Z,842.13
2022-07-30T01:52:49.056Z,859.85
2022-07-30T01:55:20.694Z,858.58
2022-07-30T01:57:49.168Z,825.22
2022-07-30T02:00:18.054Z,794.88
2022-07-30T02:02:46.667Z,838.88
2022-07-30T02:05:14.955Z,830.42
2022-07-30T02:07:51.270Z,819.38
2022-07-30T02:10:41.878Z,817.13
2022-07-30T02:13:11.858Z,801.72
2022-07-30T02:15:44.028Z,806.75
2022-07-30T02:18:23.699Z,821.20
2022-07-30T02:21:00.422Z,814.85
2022-07-30T02:23:35.445Z,800.33
2022-07-30T02:26:04.754Z,813.95
2022-07-30T02:28:39.957Z,842.63
2022-07-30T02:31:17.733Z,821.72
2022-07-30T02:33:49.580Z,811.80
2022-07-30T02:36:20.801Z,790.90
2022-07-30T02:38:52.863Z,791.78
2022-07-30T02:41:24.068Z,793.85
2022-07-30T02:43:53.483Z,784.33
2022-07-30T02:46:23.329Z,792.47
2022-07-30T02:48:53.427Z,778.42
2022-07-30T02:51:22.457Z,774.67
2022-07-30T02:53:53.910Z,786.05
2022-07-30T02:56:25.807Z,757.13
2022-07-30T02:58:57.937Z,748.97
2022-07-30T03:01:26.121Z,735.67
2022-07-30T03:03:58.535Z,756.03
2022-07-30T03:06:32.388Z,755.30
2022-07-30T03:09:01.300Z,768.22
2022-07-30T03:11:31.104Z,776.75
2022-07-30T03:14:01.058Z,767.75
2022-07-30T03:16:31.963Z,793.72
2022-07-30T03:19:05.146Z,820.95
2022-07-30T03:21:35.678Z,742.25
2022-07-30T03:24:05.073Z,756.33
2022-07-30T03:26:35.761Z,741.03
2022-07-30T03:29:07.293Z,732.60
2022-07-30T03:31:39.980Z,743.55
2022-07-30T03:34:14.447Z,738.13
2022-07-30T03:36:42.357Z,772.22
2022-07-30T03:39:11.195Z,743.17
2022-07-30T03:41:39.584Z,772.95
2022-07-30T03:44:10.854Z,741.78
2022-07-30T03:46:42.416Z,738.15
2022-07-30T03:49:10.814Z,767.05
2022-07-30T03:51:39.346Z,747.53
2022-07-30T03:54:13.402Z,730.35
2022-07-30T03:56:42.626Z,758.85
2022-07-30T03:59:10.371Z,721.58
2022-07-30T04:01:37.768Z,745.50
2022-07-30T04:04:11.931Z,708.53
2022-07-30T04:06:39.867Z,720.75
2022-07-30T04:09:11.814Z,709.10
2022-07-30T04:11:42.048Z,749.65
2022-07-30T04:14:10.210Z,725.15
2022-07-30T04:16:47.376Z,723.58
2022-07-30T04:19:27.194Z,714.25
2022-07-30T04:21:57.732Z,738.08
2022-07-30T04:24:27.038Z,724.85
2022-07-30T04:27:01.976Z,716.58
2022-07-30T04:29:30.157Z,748.42
2022-07-30T04:32:00.158Z,707.35
2022-07-30T04:34:28.013Z,703.50
2022-07-30T04:36:57.409Z,718.60
2022-07-30T04:39:25.677Z,697.72
2022-07-30T04:41:53.655Z,691.08
2022-07-30T04:44:21.624Z,693.63
2022-07-30T04:46:49.898Z,710.25
2022-07-30T04:49:19.328Z,699.97
2022-07-30T04:51:48.909Z,703.47
2022-07-30T04:54:18.396Z,696.08
2022-07-30T04:56:50.560Z,707.80
2022-07-30T04:59:25.326Z,729.10
2022-07-30T05:01:56.973Z,728.72
2022-07-30T05:04:25.511Z,710.63
2022-07-30T05:06:57.413Z,680.72
2022-07-30T05:09:25.122Z,721.28
2022-07-30T05:11:54.268Z,728.80
2022-07-30T05:14:22.923Z,707.60
2022-07-30T05:16:51.846Z,701.95
2022-07-30T05:19:23.376Z,688.08
2022-07-30T05:21:51.999Z,715.17
2022-07-30T05:24:23.788Z,693.50
2022-07-30T05:26:52.093Z,716.40
2022-07-30T05:29:20.481Z,719.17
2022-07-30T05:31:48.940Z,704.20
2022-07-30T05:34:17.264Z,712.35
2022-07-30T05:36:47.500Z,693.55
2022-07-30T05:39:15.306Z,705.55
2022-07-30T05:41:45.879Z,697.60
2022-07-30T05:44:13.287Z,699.22
2022-07-30T05:46:41.061Z,700.97
2022-07-30T05:49:11.921Z,692.55
2022-07-30T05:51:40.611Z,696.70
2022-07-30T05:54:09.787Z,673.00
2022-07-30T05:56:40.898Z,679.97
2022-07-30T05:59:08.809Z,685.80
2022-07-30T06:01:36.166Z,706.47
2022-07-30T06:04:03.989Z,701.70
2022-07-30T06:06:31.725Z,707.88
2022-07-30T06:08:59.461Z,694.92
2022-07-30T06:11:27.758Z,679.65
2022-07-30T06:13:55.672Z,689.75
2022-07-30T06:16:25.353Z,672.47
2022-07-30T06:18:53.203Z,685.70
2022-07-30T06:21:21.569Z,712.92
2022-07-30T06:23:49.481Z,696.67
2022-07-30T06:26:20.434Z,672.70
2022-07-30T06:28:50.686Z,688.67
2022-07-30T06:31:18.091Z,737.92
2022-07-30T06:33:45.867Z,730.67
2022-07-30T06:36:14.445Z,741.10
2022-07-30T06:38:42.048Z,753.38
2022-07-30T06:41:12.252Z,762.90
2022-07-30T06:43:39.924Z,778.08
2022-07-30T06:46:09.534Z,771.88
2022-07-30T06:48:39.675Z,775.67
2022-07-30T06:51:09.698Z,775.33
2022-07-30T06:53:42.825Z,812.03
2022-07-30T06:56:10.878Z,820.60
2022-07-30T06:58:38.565Z,843.75
2022-07-30T07:01:06.038Z,850.28
2022-07-30T07:03:39.705Z,861.08
2022-07-30T07:06:10.991Z,861.33
2022-07-30T07:08:41.316Z,847.20
2022-07-30T07:11:08.688Z,841.75
2022-07-30T07:13:43.054Z,795.92
2022-07-30T07:16:10.778Z,781.60
2022-07-30T07:18:38.512Z,795.97
2022-07-30T07:21:06.456Z,789.80
2022-07-30T07:23:41.633Z,755.40
2022-07-30T07:26:10.666Z,716.50
2022-07-30T07:28:40.042Z,660.92
2022-07-30T07:31:08.400Z,664.60
2022-07-30T07:33:38.528Z,602.90
2022-07-30T07:36:06.108Z,537.72
2022-07-30T07:38:36.850Z,578.08
2022-07-30T07:41:08.221Z,544.42
2022-07-30T07:43:35.570Z,488.88
2022-07-30T07:46:03.475Z,544.33
2022-07-30T07:48:30.841Z,537.55
2022-07-30T07:51:00.629Z,543.97
2022-07-30T07:53:30.607Z,530.95
2022-07-30T07:55:58.016Z,538.72
2022-07-30T07:58:28.102Z,549.08
2022-07-30T08:00:56.838Z,588.17
2022-07-30T08:03:24.126Z,644.10
2022-07-30T08:06:00.924Z,614.35
2022-07-30T08:08:33.911Z,649.50
2022-07-30T08:11:01.425Z,642.67
2022-07-30T08:13:51.737Z,665.45
2022-07-30T08:16:21.199Z,661.30
2022-07-30T08:18:48.868Z,677.00
2022-07-30T08:21:16.696Z,656.13
2022-07-30T08:23:44.032Z,653.20
2022-07-30T08:26:11.782Z,642.92
2022-07-30T08:28:39.125Z,618.95
2022-07-30T08:31:06.838Z,584.13
2022-07-30T08:33:37.016Z,586.90
2022-07-30T08:36:09.566Z,588.78
2022-07-30T08:38:38.097Z,611.30
2022-07-30T08:41:05.414Z,608.83
2022-07-30T08:43:35.152Z,605.92
2022-07-30T08:46:06.900Z,620.55
2022-07-30T08:48:35.843Z,607.05
2022-07-30T08:51:03.823Z,615.80
2022-07-30T08:53:36.462Z,612.50
2022-07-30T08:56:08.037Z,626.15
2022-07-30T08:58:35.624Z,617.15
2022-07-30T09:01:04.623Z,588.13
2022-07-30T09:03:32.880Z,600.58
2022-07-30T09:06:07.487Z,623.40
2022-07-30T09:08:37.065Z,610.65
2022-07-30T09:11:04.419Z,636.30
2022-07-30T09:13:37.755Z,609.38
2022-07-30T09:16:06.442Z,618.63
2022-07-30T09:18:35.000Z,629.15
2022-07-30T09:21:26.475Z,616.83
2022-07-30T09:24:03.241Z,646.03
2022-07-30T09:26:35.357Z,615.17
2022-07-30T09:29:26.084Z,576.20
2022-07-30T09:31:59.322Z,595.28
2022-07-30T09:34:28.182Z,568.80
2022-07-30T09:37:03.078Z,539.88
2022-07-30T09:39:43.361Z,503.20
2022-07-30T09:42:32.037Z,518.83
2022-07-30T09:45:07.810Z,479.75
2022-07-30T09:47:39.873Z,493.17
2022-07-30T09:50:08.638Z,456.83
2022-07-30T09:52:44.174Z,461.83
2022-07-30T09:55:33.339Z,470.65
2022-07-30T09:58:07.217Z,453.65
2022-07-30T10:00:36.674Z,475.27
2022-07-30T10:03:34.347Z,469.58
2022-07-30T10:06:05.846Z,509.35
2022-07-30T10:08:42.014Z,475.48
2022-07-30T10:11:23.521Z,477.55
2022-07-30T10:13:57.757Z,511.23
2022-07-30T10:16:29.561Z,493.05
2022-07-30T10:19:05.286Z,539.95
2022-07-30T10:21:37.215Z,517.72
2022-07-30T10:24:46.592Z,491.05
2022-07-30T10:26:54.609Z,513.45
2022-07-30T10:29:33.632Z,475.88
2022-07-30T10:32:02.547Z,516.63
2022-07-30T10:34:34.522Z,459.95
2022-07-30T10:37:06.539Z,485.13
2022-07-30T10:39:47.385Z,476.33
2022-07-30T10:42:49.556Z,485.33
2022-07-30T10:45:23.130Z,494.48
2022-07-30T10:47:51.728Z,500.50
2022-07-30T10:50:26.548Z,472.00
2022-07-30T10:53:02.246Z,433.15
2022-07-30T10:55:37.259Z,465.00
2022-07-30T10:58:12.308Z,472.20
2022-07-30T11:00:56.963Z,500.08
2022-07-30T11:03:39.996Z,500.77
2022-07-30T11:06:17.009Z,501.33
2022-07-30T11:08:52.153Z,582.95
2022-07-30T11:12:02.255Z,554.28
2022-07-30T11:14:16.215Z,547.08
2022-07-30T11:16:43.410Z,549.95
2022-07-30T11:19:56.204Z,545.75
2022-07-30T11:22:29.828Z,525.28
2022-07-30T11:25:12.526Z,515.28
2022-07-30T11:30:17.276Z,541.67
2022-07-30T11:32:50.451Z,543.60
2022-07-30T11:35:23.009Z,505.30
2022-07-30T11:38:12.049Z,490.60
2022-07-30T11:40:45.755Z,496.25
2022-07-30T11:43:35.639Z,482.58
2022-07-30T11:46:16.456Z,475.67
2022-07-30T11:49:00.196Z,470.08
2022-07-30T11:51:28.171Z,502.70
2022-07-30T11:54:06.438Z,486.17
2022-07-30T11:56:34.483Z,438.42
2022-07-30T11:59:08.977Z,451.10
2022-07-30T12:01:36.836Z,467.77
2022-07-30T12:04:06.334Z,495.50
2022-07-30T12:06:36.399Z,468.15
2022-07-30T12:09:04.837Z,471.55
2022-07-30T12:11:34.502Z,465.80
2022-07-30T12:14:03.133Z,478.27
2022-07-30T12:16:32.592Z,509.95
2022-07-30T12:19:09.742Z,495.83
2022-07-30T12:21:39.354Z,533.63
2022-07-30T12:24:07.751Z,543.95
2022-07-30T12:26:37.582Z,500.70
2022-07-30T12:29:10.198Z,526.22
2022-07-30T12:31:40.217Z,538.80
2022-07-30T12:34:24.033Z,538.88
2022-07-30T12:36:54.352Z,532.17
2022-07-30T12:39:27.214Z,513.45
2022-07-30T12:42:01.281Z,488.02
2022-07-30T12:44:44.568Z,501.75
2022-07-30T12:52:51.251Z,466.27
2022-07-30T12:55:27.938Z,493.15
2022-07-30T12:57:55.378Z,508.38
2022-07-30T13:00:24.538Z,505.33
2022-07-30T13:02:52.025Z,505.35
2022-07-30T13:05:19.480Z,491.75
2022-07-30T13:07:57.827Z,518.47
2022-07-30T13:10:30.886Z,494.90
2022-07-30T13:13:00.363Z,513.05
2022-07-30T13:15:27.813Z,527.28
2022-07-30T13:17:55.178Z,520.63
2022-07-30T13:20:22.948Z,524.55
2022-07-30T13:22:52.902Z,478.48
2022-07-30T13:25:20.608Z,507.48
2022-07-30T13:27:50.395Z,472.08
2022-07-30T13:30:17.872Z,466.38
2022-07-30T13:32:47.288Z,502.88
2022-07-30T13:35:15.130Z,491.13
2022-07-30T13:37:42.534Z,499.50
2022-07-30T13:40:10.417Z,479.58
2022-07-30T13:42:38.064Z,485.33
2022-07-30T13:45:08.893Z,480.75
2022-07-30T13:47:36.756Z,501.40
2022-07-30T13:50:04.400Z,486.45
2022-07-30T13:52:31.740Z,495.30
2022-07-30T13:54:59.016Z,505.42
2022-07-30T13:57:28.406Z,484.42
2022-07-30T13:59:57.786Z,496.77
2022-07-30T14:02:27.899Z,468.25
2022-07-30T14:04:55.923Z,500.75
2022-07-30T14:07:23.829Z,501.55
2022-07-30T14:09:54.354Z,493.48
2022-07-30T14:12:22.327Z,491.15
2022-07-30T14:14:49.678Z,496.20
2022-07-30T14:17:16.969Z,520.25
2022-07-30T14:19:44.779Z,518.15
2022-07-30T14:22:12.131Z,523.85
2022-07-30T14:24:39.414Z,520.08
2022-07-30T14:27:07.027Z,536.00
2022-07-30T14:29:34.649Z,517.13
2022-07-30T14:32:04.051Z,519.97
2022-07-30T14:34:34.602Z,517.47
2022-07-30T14:37:02.641Z,518.33
2022-07-30T14:39:30.191Z,526.30
2022-07-30T14:41:58.143Z,530.80
2022-07-30T14:44:27.557Z,525.00
2022-07-30T14:46:57.318Z,552.05
2022-07-30T14:49:24.878Z,539.03
2022-07-30T14:51:53.278Z,526.58
2022-07-30T14:54:22.564Z,519.75
2022-07-30T14:56:58.386Z,521.08
2022-07-30T14:59:29.779Z,490.88
2022-07-30T15:01:57.503Z,493.83
2022-07-30T15:04:27.065Z,494.00
2022-07-30T15:06:54.480Z,485.42
2022-07-30T15:09:21.826Z,460.00
2022-07-30T15:12:08.859Z,487.42
2022-07-30T15:14:41.024Z,484.80
2022-07-30T15:17:09.336Z,510.80
2022-07-30T15:19:37.624Z,502.98
2022-07-30T15:22:18.083Z,476.08
2022-07-30T15:24:45.353Z,489.70
2022-07-30T15:27:16.317Z,526.70
2022-07-30T15:29:44.497Z,512.47
2022-07-30T15:32:13.832Z,502.75
2022-07-30T15:34:41.218Z,532.25
2022-07-30T15:37:09.513Z,533.47
2022-07-30T15:39:39.839Z,538.63
2022-07-30T15:42:07.476Z,497.30
2022-07-30T15:44:42.291Z,527.38
2022-07-30T15:47:15.730Z,533.28
2022-07-30T15:49:45.308Z,520.53
2022-07-30T15:52:13.016Z,514.92
2022-07-30T15:54:40.793Z,517.28
2022-07-30T15:57:08.062Z,523.28
2022-07-30T15:59:38.823Z,505.85
2022-07-30T16:02:08.689Z,511.02
2022-07-30T16:04:35.996Z,486.13
2022-07-30T16:07:06.577Z,504.80
2022-07-30T16:09:36.392Z,527.70
2022-07-30T16:12:07.191Z,477.63
2022-07-30T16:14:40.326Z,520.05
2022-07-30T16:17:13.664Z,481.63
2022-07-30T16:19:44.872Z,481.40
2022-07-30T16:22:18.413Z,484.88
2022-07-30T16:24:51.484Z,517.88
2022-07-30T16:27:21.451Z,478.98
2022-07-30T16:29:48.827Z,491.63
2022-07-30T16:32:16.582Z,482.50
2022-07-30T16:34:46.594Z,508.73
2022-07-30T16:37:15.277Z,477.60
2022-07-30T16:39:42.540Z,486.38
2022-07-30T16:42:13.383Z,509.52
2022-07-30T16:44:40.858Z,487.50
2022-07-30T16:47:13.269Z,475.50
2022-07-30T16:49:41.195Z,496.38
2022-07-30T16:52:11.028Z,485.55
2022-07-30T16:54:43.132Z,509.73
2022-07-30T16:57:11.866Z,503.13
2022-07-30T16:59:39.106Z,494.98
2022-07-30T17:02:11.040Z,494.75
2022-07-30T17:04:41.487Z,483.67
2022-07-30T17:07:08.846Z,518.05
2022-07-30T17:09:38.369Z,477.00
2022-07-30T17:12:11.870Z,489.88
2022-07-30T17:14:41.397Z,507.90
2022-07-30T17:17:14.406Z,471.25
2022-07-30T17:22:09.458Z,465.42
2022-07-30T17:24:36.750Z,488.05
2022-07-30T17:27:04.097Z,496.50
2022-07-30T17:29:31.624Z,482.25
2022-07-30T17:32:02.184Z,489.20
2022-07-30T17:34:32.371Z,449.02
2022-07-30T17:36:59.673Z,469.85
2022-07-30T17:40:26.552Z,488.75
2022-07-30T17:42:15.151Z,489.73
2022-07-30T17:44:44.794Z,494.30
2022-07-30T17:47:16.950Z,481.63
2022-07-30T17:49:48.066Z,468.15
2022-07-30T17:52:21.314Z,472.88
2022-07-30T17:54:51.295Z,497.50
2022-07-30T17:57:18.671Z,498.25
2022-07-30T17:59:48.549Z,496.83
2022-07-30T18:02:15.937Z,449.65
2022-07-30T18:04:43.401Z,470.70
2022-07-30T18:07:12.778Z,462.55
2022-07-30T18:09:43.015Z,461.52
2022-07-30T18:12:13.133Z,473.48
2022-07-30T18:14:40.366Z,471.27
2022-07-30T18:17:11.248Z,473.92
2022-07-30T18:19:41.497Z,476.70
2022-07-30T18:22:14.734Z,523.72
2022-07-30T18:24:43.947Z,554.30
2022-07-30T18:27:13.277Z,583.67
2022-07-30T18:29:42.967Z,621.30
2022-07-30T18:32:12.874Z,688.40
2022-07-30T18:34:40.116Z,704.08
2022-07-30T18:37:07.438Z,707.63
2022-07-30T18:39:34.782Z,725.53
2022-07-30T18:42:03.696Z,736.35
2022-07-30T18:44:32.093Z,726.40
2022-07-30T18:46:59.493Z,730.78
2022-07-30T18:49:36.557Z,741.08
2022-07-30T18:52:06.156Z,726.88
2022-07-30T18:54:36.215Z,724.85
2022-07-30T18:57:10.047Z,716.92
2022-07-30T18:59:43.350Z,737.08
2022-07-30T19:02:12.810Z,704.67
2022-07-30T19:04:40.106Z,731.83
2022-07-30T19:07:09.499Z,706.83
2022-07-30T19:09:37.556Z,702.80
2022-07-30T19:12:05.812Z,699.75
2022-07-30T19:14:33.409Z,707.55
2022-07-30T19:17:46.335Z,712.95
2022-07-30T19:20:14.486Z,702.87
2022-07-30T19:22:42.300Z,717.70
2022-07-30T19:25:13.149Z,702.08
2022-07-30T19:27:40.677Z,731.45
2022-07-30T19:30:10.923Z,710.75
2022-07-30T19:32:40.534Z,720.13
2022-07-30T19:35:13.537Z,721.47
2022-07-30T19:37:42.190Z,715.08
2022-07-30T19:40:13.399Z,719.17
2022-07-30T19:42:41.664Z,734.65
2022-07-30T19:45:12.131Z,730.22
2022-07-30T19:48:00.149Z,721.58
2022-07-30T19:50:29.098Z,728.60
2022-07-30T19:52:56.571Z,722.63
2022-07-30T19:55:35.034Z,732.67
2022-07-30T19:58:05.359Z,743.88
2022-07-30T20:00:51.854Z,735.72
2022-07-30T20:03:26.131Z,721.20
2022-07-30T20:06:00.176Z,721.72
2022-07-30T20:08:28.132Z,728.92
2022-07-30T20:10:59.216Z,717.42
2022-07-30T20:16:18.397Z,740.60
2022-07-30T20:18:49.690Z,719.80
2022-07-30T20:21:21.036Z,737.75
2022-07-30T20:24:08.483Z,730.17
2022-07-30T20:26:37.675Z,715.40
2022-07-30T20:29:09.260Z,726.67
2022-07-30T20:31:46.619Z,696.38
2022-07-30T20:34:20.724Z,699.67
2022-07-30T20:36:51.988Z,716.50
2022-07-30T20:39:21.431Z,693.08
2022-07-30T20:41:49.170Z,702.28
2022-07-30T20:44:23.514Z,697.35
2022-07-30T20:46:52.692Z,691.97
2022-07-30T20:49:28.757Z,689.28
2022-07-30T20:52:03.418Z,707.20
2022-07-30T20:54:31.793Z,681.85
2022-07-30T20:57:00.702Z,688.10
2022-07-30T20:59:32.107Z,677.65
2022-07-30T21:02:05.003Z,678.80
2022-07-30T21:04:33.799Z,684.83
2022-07-30T21:07:03.890Z,670.35
2022-07-30T21:09:49.931Z,683.17
2022-07-30T21:12:19.740Z,679.63
2022-07-30T21:15:00.363Z,662.47
2022-07-30T21:17:28.256Z,687.60
2022-07-30T21:19:55.625Z,694.47
2022-07-30T21:22:22.998Z,694.58
2022-07-30T21:24:53.464Z,680.13
2022-07-30T21:27:21.234Z,691.42
2022-07-30T21:29:57.969Z,700.90
2022-07-30T21:32:26.624Z,681.45
2022-07-30T21:34:54.574Z,689.85
2022-07-30T21:37:24.831Z,694.95
2022-07-30T21:40:06.440Z,691.78
2022-07-30T21:42:36.143Z,708.97
2022-07-30T21:45:15.991Z,699.50
2022-07-30T21:47:47.718Z,705.95
2022-07-30T21:50:17.843Z,701.53
2022-07-30T21:52:45.773Z,698.65
2022-07-30T21:55:13.603Z,688.65
2022-07-30T21:57:42.129Z,681.80
2022-07-30T22:00:21.896Z,677.35
2022-07-30T22:02:53.876Z,667.13
2022-07-30T22:05:23.475Z,698.47
2022-07-30T22:07:51.192Z,692.22
2022-07-30T22:10:21.287Z,691.92
2022-07-30T22:12:49.022Z,675.17
2022-07-30T22:15:18.841Z,678.60
2022-07-30T22:20:33.638Z,668.42
2022-07-30T22:23:03.204Z,672.95
2022-07-30T22:25:39.770Z,692.17
2022-07-30T22:28:11.883Z,680.85
2022-07-30T22:30:43.570Z,679.40
2022-07-30T22:33:19.911Z,698.28
2022-07-30T22:35:51.191Z,697.00
2022-07-30T22:38:21.063Z,720.45
2022-07-30T22:40:50.246Z,703.47
2022-07-30T22:43:18.013Z,715.75
2022-07-30T22:45:48.774Z,668.08
2022-07-30T22:48:21.738Z,697.13
2022-07-30T22:50:53.929Z,693.17
2022-07-30T22:54:03.098Z,678.20
2022-07-30T22:56:15.766Z,668.88
2022-07-30T22:58:58.672Z,699.33
2022-07-30T23:01:25.946Z,692.42
2022-07-30T23:03:53.399Z,718.30
2022-07-30T23:06:21.218Z,708.63
2022-07-30T23:08:50.383Z,664.22
2022-07-30T23:11:20.774Z,680.70
2022-07-30T23:12:15.970Z,733.40
2022-07-30T23:12:31.316Z,673.40
2022-07-30T23:13:48.145Z,674.10
2022-07-30T23:16:15.975Z,688.40
2022-07-30T23:18:45.624Z,704.78
2022-07-30T23:21:12.997Z,707.45
2022-07-30T23:23:40.572Z,708.20
2022-07-30T23:26:08.548Z,711.60
2022-07-30T23:28:38.596Z,737.92
2022-07-30T23:31:05.929Z,715.20
2022-07-30T23:33:33.747Z,660.28
2022-07-30T23:36:01.580Z,667.38
2022-07-30T23:38:31.611Z,663.70
2022-07-30T23:41:03.993Z,686.50
2022-07-30T23:43:32.206Z,678.92
2022-07-30T23:46:01.736Z,700.90
2022-07-30T23:48:29.527Z,693.38
2022-07-30T23:50:59.030Z,675.28
2022-07-30T23:53:26.378Z,692.88
2022-07-30T23:55:53.686Z,687.83
2022-07-30T23:58:21.246Z,686.50
